sensor_id;sensor_type;location;lat;lon;timestamp;P1;durP1;ratioP1;P2;durP2;ratioP2
49193;SDS011;35029;50.804;12.866;2022-12-29T00:02:25;4.10;;;2.10;;
49193;SDS011;35029;50.804;12.866;2022-12-29T00:04:55;3.45;;;1.70;;
49193;SDS011;35029;50.804;12.866;2022-12-29T00:07:23;2.35;;;1.02;;
49193;SDS011;35029;50.804;12.866;2022-12-29T00:09:49;1.60;;;1.23;;
49193;SDS011;35029;50.804;12.866;2022-12-29T00:12:15;4.72;;;1.55;;
49193;SDS011;35029;50.804;12.866;2022-12-29T00:14:40;4.10;;;1.60;;
49193;SDS011;35029;50.804;12.866;2022-12-29T00:17:25;2.00;;;1.48;;
49193;SDS011;35029;50.804;12.866;2022-12-29T00:19:51;2.35;;;1.55;;
49193;SDS011;35029;50.804;12.866;2022-12-29T00:22:35;2.50;;;1.60;;
49193;SDS011;35029;50.804;12.866;2022-12-29T00:25:19;2.35;;;1.50;;
49193;SDS011;35029;50.804;12.866;2022-12-29T00:28:04;4.10;;;2.10;;
49193;SDS011;35029;50.804;12.866;2022-12-29T00:30:50;1.80;;;1.20;;
49193;SDS011;35029;50.804;12.866;2022-12-29T00:33:35;4.82;;;1.70;;
49193;SDS011;35029;50.804;12.866;2022-12-29T00:36:21;5.63;;;1.83;;
49193;SDS011;35029;50.804;12.866;2022-12-29T00:39:05;2.05;;;1.38;;
49193;SDS011;35029;50.804;12.866;2022-12-29T00:41:53;3.42;;;1.50;;
49193;SDS011;35029;50.804;12.866;2022-12-29T00:44:46;2.65;;;1.63;;
49193;SDS011;35029;50.804;12.866;2022-12-29T00:47:13;2.38;;;1.30;;
49193;SDS011;35029;50.804;12.866;2022-12-29T00:49:39;2.33;;;1.60;;
49193;SDS011;35029;50.804;12.866;2022-12-29T00:52:07;4.07;;;1.80;;
49193;SDS011;35029;50.804;12.866;2022-12-29T00:54:36;3.30;;;1.52;;
49193;SDS011;35029;50.804;12.866;2022-12-29T00:57:05;3.22;;;1.83;;
49193;SDS011;35029;50.804;12.866;2022-12-29T00:59:34;3.20;;;1.50;;
49193;SDS011;35029;50.804;12.866;2022-12-29T01:02:01;2.63;;;1.90;;
49193;SDS011;35029;50.804;12.866;2022-12-29T01:04:27;3.88;;;1.65;;
49193;SDS011;35029;50.804;12.866;2022-12-29T01:06:54;2.28;;;1.75;;
49193;SDS011;35029;50.804;12.866;2022-12-29T01:09:19;3.40;;;1.73;;
49193;SDS011;35029;50.804;12.866;2022-12-29T01:12:04;1.83;;;1.25;;
49193;SDS011;35029;50.804;12.866;2022-12-29T01:14:31;1.70;;;1.17;;
49193;SDS011;35029;50.804;12.866;2022-12-29T01:16:57;3.67;;;1.45;;
49193;SDS011;35029;50.804;12.866;2022-12-29T01:19:23;1.60;;;1.27;;
49193;SDS011;35029;50.804;12.866;2022-12-29T01:21:50;2.45;;;1.67;;
49193;SDS011;35029;50.804;12.866;2022-12-29T01:24:17;2.35;;;1.40;;
49193;SDS011;35029;50.804;12.866;2022-12-29T01:26:45;2.80;;;1.65;;
49193;SDS011;35029;50.804;12.866;2022-12-29T01:29:11;3.03;;;1.67;;
49193;SDS011;35029;50.804;12.866;2022-12-29T01:31:38;1.98;;;1.45;;
49193;SDS011;35029;50.804;12.866;2022-12-29T01:34:03;1.98;;;1.50;;
49193;SDS011;35029;50.804;12.866;2022-12-29T01:36:31;1.58;;;1.23;;
49193;SDS011;35029;50.804;12.866;2022-12-29T01:38:57;3.38;;;1.80;;
49193;SDS011;35029;50.804;12.866;2022-12-29T01:41:23;3.60;;;1.45;;
49193;SDS011;35029;50.804;12.866;2022-12-29T01:43:58;2.97;;;1.95;;
49193;SDS011;35029;50.804;12.866;2022-12-29T01:51:33;2.75;;;1.50;;
49193;SDS011;35029;50.804;12.866;2022-12-29T01:54:02;2.67;;;1.33;;
49193;SDS011;35029;50.804;12.866;2022-12-29T01:56:33;2.25;;;1.67;;
49193;SDS011;35029;50.804;12.866;2022-12-29T01:59:01;3.58;;;1.55;;
49193;SDS011;35029;50.804;12.866;2022-12-29T02:01:32;4.95;;;1.98;;
49193;SDS011;35029;50.804;12.866;2022-12-29T02:04:00;1.95;;;1.33;;
49193;SDS011;35029;50.804;12.866;2022-12-29T02:06:31;5.50;;;1.60;;
49193;SDS011;35029;50.804;12.866;2022-12-29T02:09:02;3.10;;;1.52;;
49193;SDS011;35029;50.804;12.866;2022-12-29T02:11:30;2.00;;;1.27;;
49193;SDS011;35029;50.804;12.866;2022-12-29T02:13:57;2.85;;;1.30;;
49193;SDS011;35029;50.804;12.866;2022-12-29T02:16:29;2.35;;;1.77;;
49193;SDS011;35029;50.804;12.866;2022-12-29T02:30:06;3.00;;;1.60;;
49193;SDS011;35029;50.804;12.866;2022-12-29T02:35:33;4.90;;;1.70;;
49193;SDS011;35029;50.804;12.866;2022-12-29T02:41:15;1.60;;;1.40;;
49193;SDS011;35029;50.804;12.866;2022-12-29T02:43:46;2.83;;;1.80;;
49193;SDS011;35029;50.804;12.866;2022-12-29T02:46:21;2.75;;;1.42;;
49193;SDS011;35029;50.804;12.866;2022-12-29T02:51:46;4.28;;;1.60;;
49193;SDS011;35029;50.804;12.866;2022-12-29T02:54:18;4.07;;;2.00;;
49193;SDS011;35029;50.804;12.866;2022-12-29T02:59:36;2.42;;;1.67;;
49193;SDS011;35029;50.804;12.866;2022-12-29T03:08:00;1.83;;;1.20;;
49193;SDS011;35029;50.804;12.866;2022-12-29T03:16:32;5.70;;;1.50;;
49193;SDS011;35029;50.804;12.866;2022-12-29T03:19:07;5.40;;;1.63;;
49193;SDS011;35029;50.804;12.866;2022-12-29T03:21:41;6.90;;;1.95;;
49193;SDS011;35029;50.804;12.866;2022-12-29T03:24:39;3.95;;;1.60;;
49193;SDS011;35029;50.804;12.866;2022-12-29T03:27:08;2.10;;;1.48;;
49193;SDS011;35029;50.804;12.866;2022-12-29T03:29:41;1.58;;;1.33;;
49193;SDS011;35029;50.804;12.866;2022-12-29T03:32:18;2.45;;;1.17;;
49193;SDS011;35029;50.804;12.866;2022-12-29T03:34:46;4.38;;;1.67;;
49193;SDS011;35029;50.804;12.866;2022-12-29T03:37:15;2.33;;;1.30;;
49193;SDS011;35029;50.804;12.866;2022-12-29T03:39:46;3.47;;;1.10;;
49193;SDS011;35029;50.804;12.866;2022-12-29T03:42:13;4.50;;;1.30;;
49193;SDS011;35029;50.804;12.866;2022-12-29T03:44:43;1.63;;;1.08;;
49193;SDS011;35029;50.804;12.866;2022-12-29T03:47:12;3.92;;;1.58;;
49193;SDS011;35029;50.804;12.866;2022-12-29T03:49:39;4.00;;;1.30;;
49193;SDS011;35029;50.804;12.866;2022-12-29T03:52:06;3.45;;;1.02;;
49193;SDS011;35029;50.804;12.866;2022-12-29T03:54:40;2.90;;;1.13;;
49193;SDS011;35029;50.804;12.866;2022-12-29T03:57:06;4.47;;;1.40;;
49193;SDS011;35029;50.804;12.866;2022-12-29T03:59:43;7.35;;;1.38;;
49193;SDS011;35029;50.804;12.866;2022-12-29T04:02:09;1.95;;;1.15;;
49193;SDS011;35029;50.804;12.866;2022-12-29T04:04:35;3.70;;;1.42;;
49193;SDS011;35029;50.804;12.866;2022-12-29T04:07:01;2.47;;;1.70;;
49193;SDS011;35029;50.804;12.866;2022-12-29T04:09:27;2.63;;;1.63;;
49193;SDS011;35029;50.804;12.866;2022-12-29T04:11:56;3.05;;;1.20;;
49193;SDS011;35029;50.804;12.866;2022-12-29T04:14:21;2.05;;;1.63;;
49193;SDS011;35029;50.804;12.866;2022-12-29T04:16:47;2.95;;;1.20;;
49193;SDS011;35029;50.804;12.866;2022-12-29T04:19:13;4.93;;;1.73;;
49193;SDS011;35029;50.804;12.866;2022-12-29T04:21:38;5.75;;;1.80;;
49193;SDS011;35029;50.804;12.866;2022-12-29T04:24:05;2.30;;;1.35;;
49193;SDS011;35029;50.804;12.866;2022-12-29T04:26:33;2.60;;;1.42;;
49193;SDS011;35029;50.804;12.866;2022-12-29T04:29:34;4.70;;;1.55;;
49193;SDS011;35029;50.804;12.866;2022-12-29T04:32:19;3.55;;;1.48;;
49193;SDS011;35029;50.804;12.866;2022-12-29T04:34:48;1.50;;;1.30;;
49193;SDS011;35029;50.804;12.866;2022-12-29T04:37:14;2.33;;;1.75;;
49193;SDS011;35029;50.804;12.866;2022-12-29T04:39:41;5.35;;;1.77;;
49193;SDS011;35029;50.804;12.866;2022-12-29T04:42:07;7.90;;;2.00;;
49193;SDS011;35029;50.804;12.866;2022-12-29T04:44:33;2.10;;;1.63;;
49193;SDS011;35029;50.804;12.866;2022-12-29T04:47:32;5.55;;;1.80;;
49193;SDS011;35029;50.804;12.866;2022-12-29T04:50:21;3.47;;;1.40;;
49193;SDS011;35029;50.804;12.866;2022-12-29T04:53:04;2.47;;;1.70;;
49193;SDS011;35029;50.804;12.866;2022-12-29T04:55:32;4.15;;;1.20;;
49193;SDS011;35029;50.804;12.866;2022-12-29T04:57:57;2.58;;;1.50;;
49193;SDS011;35029;50.804;12.866;2022-12-29T05:00:25;1.85;;;1.20;;
49193;SDS011;35029;50.804;12.866;2022-12-29T05:02:51;3.58;;;1.35;;
49193;SDS011;35029;50.804;12.866;2022-12-29T05:05:17;1.42;;;1.20;;
49193;SDS011;35029;50.804;12.866;2022-12-29T05:07:47;6.55;;;1.83;;
49193;SDS011;35029;50.804;12.866;2022-12-29T05:10:13;4.03;;;1.40;;
49193;SDS011;35029;50.804;12.866;2022-12-29T05:12:39;4.78;;;1.52;;
49193;SDS011;35029;50.804;12.866;2022-12-29T05:15:06;4.15;;;1.90;;
49193;SDS011;35029;50.804;12.866;2022-12-29T05:17:33;1.80;;;1.15;;
49193;SDS011;35029;50.804;12.866;2022-12-29T05:19:59;4.18;;;1.95;;
49193;SDS011;35029;50.804;12.866;2022-12-29T05:22:25;2.30;;;1.42;;
49193;SDS011;35029;50.804;12.866;2022-12-29T05:24:53;2.28;;;1.25;;
49193;SDS011;35029;50.804;12.866;2022-12-29T05:27:20;2.58;;;1.58;;
49193;SDS011;35029;50.804;12.866;2022-12-29T05:30:12;4.80;;;1.67;;
49193;SDS011;35029;50.804;12.866;2022-12-29T05:32:37;5.60;;;2.15;;
49193;SDS011;35029;50.804;12.866;2022-12-29T05:35:03;2.88;;;1.80;;
49193;SDS011;35029;50.804;12.866;2022-12-29T05:37:32;3.78;;;1.40;;
49193;SDS011;35029;50.804;12.866;2022-12-29T05:39:58;4.70;;;2.00;;
49193;SDS011;35029;50.804;12.866;2022-12-29T05:42:24;3.03;;;1.20;;
49193;SDS011;35029;50.804;12.866;2022-12-29T05:45:11;3.65;;;1.60;;
49193;SDS011;35029;50.804;12.866;2022-12-29T05:47:51;2.70;;;1.48;;
49193;SDS011;35029;50.804;12.866;2022-12-29T05:50:35;4.13;;;1.67;;
49193;SDS011;35029;50.804;12.866;2022-12-29T05:53:14;2.83;;;1.50;;
49193;SDS011;35029;50.804;12.866;2022-12-29T05:55:42;1.52;;;1.23;;
49193;SDS011;35029;50.804;12.866;2022-12-29T05:58:09;1.20;;;1.10;;
49193;SDS011;35029;50.804;12.866;2022-12-29T06:00:35;3.25;;;1.38;;
49193;SDS011;35029;50.804;12.866;2022-12-29T06:03:01;1.90;;;1.10;;
49193;SDS011;35029;50.804;12.866;2022-12-29T06:05:27;5.60;;;1.50;;
49193;SDS011;35029;50.804;12.866;2022-12-29T06:07:54;8.48;;;1.63;;
49193;SDS011;35029;50.804;12.866;2022-12-29T06:10:21;1.98;;;1.10;;
49193;SDS011;35029;50.804;12.866;2022-12-29T06:12:58;2.45;;;1.00;;
49193;SDS011;35029;50.804;12.866;2022-12-29T06:15:24;2.28;;;1.38;;
49193;SDS011;35029;50.804;12.866;2022-12-29T06:17:50;4.68;;;1.42;;
49193;SDS011;35029;50.804;12.866;2022-12-29T06:20:16;1.10;;;1.00;;
49193;SDS011;35029;50.804;12.866;2022-12-29T06:22:42;1.60;;;1.25;;
49193;SDS011;35029;50.804;12.866;2022-12-29T06:25:08;2.13;;;1.35;;
49193;SDS011;35029;50.804;12.866;2022-12-29T06:27:35;1.85;;;1.00;;
49193;SDS011;35029;50.804;12.866;2022-12-29T06:30:04;4.93;;;1.73;;
49193;SDS011;35029;50.804;12.866;2022-12-29T06:32:32;3.08;;;1.90;;
49193;SDS011;35029;50.804;12.866;2022-12-29T06:35:04;2.50;;;1.25;;
49193;SDS011;35029;50.804;12.866;2022-12-29T06:37:33;1.90;;;1.33;;
49193;SDS011;35029;50.804;12.866;2022-12-29T06:40:00;2.10;;;1.40;;
49193;SDS011;35029;50.804;12.866;2022-12-29T06:42:33;1.98;;;1.77;;
49193;SDS011;35029;50.804;12.866;2022-12-29T06:45:23;3.28;;;1.98;;
49193;SDS011;35029;50.804;12.866;2022-12-29T06:47:49;4.30;;;1.70;;
49193;SDS011;35029;50.804;12.866;2022-12-29T06:50:15;1.60;;;1.48;;
49193;SDS011;35029;50.804;12.866;2022-12-29T06:52:40;1.95;;;1.27;;
49193;SDS011;35029;50.804;12.866;2022-12-29T06:55:07;5.07;;;1.73;;
49193;SDS011;35029;50.804;12.866;2022-12-29T06:57:34;3.55;;;1.50;;
49193;SDS011;35029;50.804;12.866;2022-12-29T07:00:00;4.07;;;1.58;;
49193;SDS011;35029;50.804;12.866;2022-12-29T07:02:26;3.17;;;1.60;;
49193;SDS011;35029;50.804;12.866;2022-12-29T07:04:52;2.58;;;1.40;;
49193;SDS011;35029;50.804;12.866;2022-12-29T07:07:18;4.30;;;1.80;;
49193;SDS011;35029;50.804;12.866;2022-12-29T07:09:45;2.03;;;1.45;;
49193;SDS011;35029;50.804;12.866;2022-12-29T07:12:10;2.55;;;1.52;;
49193;SDS011;35029;50.804;12.866;2022-12-29T07:14:36;3.78;;;1.40;;
49193;SDS011;35029;50.804;12.866;2022-12-29T07:17:02;4.30;;;1.85;;
49193;SDS011;35029;50.804;12.866;2022-12-29T07:19:30;4.72;;;2.28;;
49193;SDS011;35029;50.804;12.866;2022-12-29T07:21:56;2.15;;;1.38;;
49193;SDS011;35029;50.804;12.866;2022-12-29T07:24:22;3.35;;;1.95;;
49193;SDS011;35029;50.804;12.866;2022-12-29T07:26:47;4.53;;;1.88;;
49193;SDS011;35029;50.804;12.866;2022-12-29T07:29:13;3.42;;;1.77;;
49193;SDS011;35029;50.804;12.866;2022-12-29T07:31:38;3.00;;;1.77;;
49193;SDS011;35029;50.804;12.866;2022-12-29T07:34:04;3.05;;;2.00;;
49193;SDS011;35029;50.804;12.866;2022-12-29T07:36:29;5.10;;;1.90;;
49193;SDS011;35029;50.804;12.866;2022-12-29T07:38:55;2.03;;;1.83;;
49193;SDS011;35029;50.804;12.866;2022-12-29T07:41:21;3.25;;;1.92;;
49193;SDS011;35029;50.804;12.866;2022-12-29T07:43:48;6.10;;;1.92;;
49193;SDS011;35029;50.804;12.866;2022-12-29T07:46:28;2.95;;;1.33;;
49193;SDS011;35029;50.804;12.866;2022-12-29T07:48:54;3.85;;;1.63;;
49193;SDS011;35029;50.804;12.866;2022-12-29T07:51:21;2.95;;;1.65;;
49193;SDS011;35029;50.804;12.866;2022-12-29T07:53:46;3.95;;;1.60;;
49193;SDS011;35029;50.804;12.866;2022-12-29T07:56:12;5.53;;;1.70;;
49193;SDS011;35029;50.804;12.866;2022-12-29T07:58:38;2.80;;;1.40;;
49193;SDS011;35029;50.804;12.866;2022-12-29T08:01:03;3.25;;;1.45;;
49193;SDS011;35029;50.804;12.866;2022-12-29T08:03:30;1.92;;;1.50;;
49193;SDS011;35029;50.804;12.866;2022-12-29T08:05:56;3.80;;;1.70;;
49193;SDS011;35029;50.804;12.866;2022-12-29T08:08:23;2.70;;;1.80;;
49193;SDS011;35029;50.804;12.866;2022-12-29T08:10:49;2.35;;;1.30;;
49193;SDS011;35029;50.804;12.866;2022-12-29T08:13:15;2.30;;;1.83;;
49193;SDS011;35029;50.804;12.866;2022-12-29T08:15:41;2.70;;;1.40;;
49193;SDS011;35029;50.804;12.866;2022-12-29T08:18:07;2.30;;;1.25;;
49193;SDS011;35029;50.804;12.866;2022-12-29T08:20:33;3.05;;;1.33;;
49193;SDS011;35029;50.804;12.866;2022-12-29T08:22:59;4.68;;;1.50;;
49193;SDS011;35029;50.804;12.866;2022-12-29T08:25:25;2.53;;;1.40;;
49193;SDS011;35029;50.804;12.866;2022-12-29T08:27:51;1.67;;;1.45;;
49193;SDS011;35029;50.804;12.866;2022-12-29T08:30:16;2.40;;;1.40;;
49193;SDS011;35029;50.804;12.866;2022-12-29T08:32:42;1.92;;;1.60;;
49193;SDS011;35029;50.804;12.866;2022-12-29T08:35:08;4.25;;;1.52;;
49193;SDS011;35029;50.804;12.866;2022-12-29T08:37:34;3.88;;;1.48;;
49193;SDS011;35029;50.804;12.866;2022-12-29T08:40:00;3.20;;;1.73;;
49193;SDS011;35029;50.804;12.866;2022-12-29T08:42:29;3.58;;;1.20;;
49193;SDS011;35029;50.804;12.866;2022-12-29T08:44:59;4.05;;;1.67;;
49193;SDS011;35029;50.804;12.866;2022-12-29T08:47:25;3.35;;;1.52;;
49193;SDS011;35029;50.804;12.866;2022-12-29T08:49:51;3.30;;;1.50;;
49193;SDS011;35029;50.804;12.866;2022-12-29T08:52:17;4.10;;;1.52;;
49193;SDS011;35029;50.804;12.866;2022-12-29T08:54:42;3.08;;;1.63;;
49193;SDS011;35029;50.804;12.866;2022-12-29T08:57:08;2.65;;;1.50;;
49193;SDS011;35029;50.804;12.866;2022-12-29T09:02:05;5.78;;;1.33;;
49193;SDS011;35029;50.804;12.866;2022-12-29T09:04:32;3.70;;;1.52;;
49193;SDS011;35029;50.804;12.866;2022-12-29T09:06:57;2.25;;;1.60;;
49193;SDS011;35029;50.804;12.866;2022-12-29T09:09:23;2.80;;;1.63;;
49193;SDS011;35029;50.804;12.866;2022-12-29T09:11:48;2.58;;;1.27;;
49193;SDS011;35029;50.804;12.866;2022-12-29T09:14:14;5.05;;;1.38;;
49193;SDS011;35029;50.804;12.866;2022-12-29T09:16:40;2.35;;;1.33;;
49193;SDS011;35029;50.804;12.866;2022-12-29T09:19:24;1.85;;;1.25;;
49193;SDS011;35029;50.804;12.866;2022-12-29T09:21:50;1.73;;;1.20;;
49193;SDS011;35029;50.804;12.866;2022-12-29T09:24:15;2.65;;;1.50;;
49193;SDS011;35029;50.804;12.866;2022-12-29T09:26:41;4.18;;;1.65;;
49193;SDS011;35029;50.804;12.866;2022-12-29T09:29:07;1.52;;;1.20;;
49193;SDS011;35029;50.804;12.866;2022-12-29T09:31:32;5.18;;;1.40;;
49193;SDS011;35029;50.804;12.866;2022-12-29T09:33:58;1.98;;;1.40;;
49193;SDS011;35029;50.804;12.866;2022-12-29T09:36:24;3.08;;;1.45;;
49193;SDS011;35029;50.804;12.866;2022-12-29T09:38:49;1.33;;;1.23;;
49193;SDS011;35029;50.804;12.866;2022-12-29T09:41:25;3.92;;;1.58;;
49193;SDS011;35029;50.804;12.866;2022-12-29T09:46:24;4.10;;;1.70;;
49193;SDS011;35029;50.804;12.866;2022-12-29T09:52:14;3.55;;;1.52;;
49193;SDS011;35029;50.804;12.866;2022-12-29T09:57:27;2.38;;;1.23;;
49193;SDS011;35029;50.804;12.866;2022-12-29T10:00:23;2.47;;;1.38;;
49193;SDS011;35029;50.804;12.866;2022-12-29T10:02:59;1.52;;;1.08;;
49193;SDS011;35029;50.804;12.866;2022-12-29T10:17:01;4.22;;;1.52;;
49193;SDS011;35029;50.804;12.866;2022-12-29T10:25:39;2.17;;;1.35;;
49193;SDS011;35029;50.804;12.866;2022-12-29T10:28:19;5.88;;;1.63;;
49193;SDS011;35029;50.804;12.866;2022-12-29T10:30:47;1.67;;;1.20;;
49193;SDS011;35029;50.804;12.866;2022-12-29T10:33:17;3.83;;;1.33;;
49193;SDS011;35029;50.804;12.866;2022-12-29T10:35:48;2.20;;;1.40;;
49193;SDS011;35029;50.804;12.866;2022-12-29T10:38:29;7.15;;;1.92;;
49193;SDS011;35029;50.804;12.866;2022-12-29T10:43:51;1.95;;;1.00;;
49193;SDS011;35029;50.804;12.866;2022-12-29T10:46:22;2.20;;;1.27;;
49193;SDS011;35029;50.804;12.866;2022-12-29T10:48:50;3.60;;;1.48;;
49193;SDS011;35029;50.804;12.866;2022-12-29T10:53:54;3.05;;;1.30;;
49193;SDS011;35029;50.804;12.866;2022-12-29T10:56:53;3.35;;;1.35;;
49193;SDS011;35029;50.804;12.866;2022-12-29T10:59:30;1.98;;;1.23;;
49193;SDS011;35029;50.804;12.866;2022-12-29T11:07:28;2.13;;;1.35;;
49193;SDS011;35029;50.804;12.866;2022-12-29T11:09:55;1.50;;;1.23;;
49193;SDS011;35029;50.804;12.866;2022-12-29T11:13:46;2.17;;;1.40;;
49193;SDS011;35029;50.804;12.866;2022-12-29T11:15:46;2.05;;;1.27;;
49193;SDS011;35029;50.804;12.866;2022-12-29T11:20:49;2.85;;;1.70;;
49193;SDS011;35029;50.804;12.866;2022-12-29T11:28:40;4.65;;;1.77;;
49193;SDS011;35029;50.804;12.866;2022-12-29T11:31:09;2.38;;;1.45;;
49193;SDS011;35029;50.804;12.866;2022-12-29T11:33:36;2.30;;;1.30;;
49193;SDS011;35029;50.804;12.866;2022-12-29T11:36:21;5.03;;;1.55;;
49193;SDS011;35029;50.804;12.866;2022-12-29T11:38:51;2.88;;;2.00;;
49193;SDS011;35029;50.804;12.866;2022-12-29T11:41:25;2.58;;;1.70;;
49193;SDS011;35029;50.804;12.866;2022-12-29T11:43:57;2.38;;;1.70;;
49193;SDS011;35029;50.804;12.866;2022-12-29T11:48:54;4.60;;;1.63;;
49193;SDS011;35029;50.804;12.866;2022-12-29T11:51:25;2.05;;;1.63;;
49193;SDS011;35029;50.804;12.866;2022-12-29T11:53:58;2.13;;;1.27;;
49193;SDS011;35029;50.804;12.866;2022-12-29T11:56:35;3.42;;;1.73;;
49193;SDS011;35029;50.804;12.866;2022-12-29T12:02:00;4.05;;;2.05;;
49193;SDS011;35029;50.804;12.866;2022-12-29T12:04:36;1.88;;;1.30;;
49193;SDS011;35029;50.804;12.866;2022-12-29T12:07:08;4.10;;;1.70;;
49193;SDS011;35029;50.804;12.866;2022-12-29T12:09:53;1.88;;;1.67;;
49193;SDS011;35029;50.804;12.866;2022-12-29T12:14:58;3.45;;;1.50;;
49193;SDS011;35029;50.804;12.866;2022-12-29T12:17:49;3.15;;;1.70;;
49193;SDS011;35029;50.804;12.866;2022-12-29T12:23:07;2.25;;;1.45;;
49193;SDS011;35029;50.804;12.866;2022-12-29T12:25:57;2.10;;;1.52;;
49193;SDS011;35029;50.804;12.866;2022-12-29T12:31:21;2.05;;;1.60;;
49193;SDS011;35029;50.804;12.866;2022-12-29T12:33:57;2.30;;;1.50;;
49193;SDS011;35029;50.804;12.866;2022-12-29T12:36:40;5.53;;;1.90;;
49193;SDS011;35029;50.804;12.866;2022-12-29T12:53:56;3.47;;;1.40;;
49193;SDS011;35029;50.804;12.866;2022-12-29T13:23:12;1.83;;;1.33;;
49193;SDS011;35029;50.804;12.866;2022-12-29T13:25:52;4.60;;;1.40;;
49193;SDS011;35029;50.804;12.866;2022-12-29T13:28:31;3.45;;;1.63;;
49193;SDS011;35029;50.804;12.866;2022-12-29T13:36:24;2.10;;;1.52;;
49193;SDS011;35029;50.804;12.866;2022-12-29T13:39:00;3.92;;;1.63;;
49193;SDS011;35029;50.804;12.866;2022-12-29T13:41:34;2.08;;;1.52;;
49193;SDS011;35029;50.804;12.866;2022-12-29T13:44:04;5.47;;;1.85;;
49193;SDS011;35029;50.804;12.866;2022-12-29T13:46:33;2.65;;;1.60;;
49193;SDS011;35029;50.804;12.866;2022-12-29T13:49:05;4.25;;;1.25;;
49193;SDS011;35029;50.804;12.866;2022-12-29T13:51:38;3.42;;;1.75;;
49193;SDS011;35029;50.804;12.866;2022-12-29T13:57:05;3.00;;;1.48;;
49193;SDS011;35029;50.804;12.866;2022-12-29T14:02:23;2.95;;;1.33;;
49193;SDS011;35029;50.804;12.866;2022-12-29T14:07:23;2.63;;;1.38;;
49193;SDS011;35029;50.804;12.866;2022-12-29T14:09:50;2.28;;;1.40;;
49193;SDS011;35029;50.804;12.866;2022-12-29T14:12:25;1.75;;;1.17;;
49193;SDS011;35029;50.804;12.866;2022-12-29T14:17:41;3.70;;;1.60;;
49193;SDS011;35029;50.804;12.866;2022-12-29T14:20:21;2.45;;;1.48;;
49193;SDS011;35029;50.804;12.866;2022-12-29T14:22:58;3.45;;;1.38;;
49193;SDS011;35029;50.804;12.866;2022-12-29T14:28:30;4.05;;;1.80;;
49193;SDS011;35029;50.804;12.866;2022-12-29T14:30:58;7.72;;;2.10;;
49193;SDS011;35029;50.804;12.866;2022-12-29T14:33:26;2.55;;;1.60;;
49193;SDS011;35029;50.804;12.866;2022-12-29T14:35:56;3.03;;;1.95;;
49193;SDS011;35029;50.804;12.866;2022-12-29T14:38:46;2.58;;;1.73;;
49193;SDS011;35029;50.804;12.866;2022-12-29T14:41:17;2.38;;;1.65;;
49193;SDS011;35029;50.804;12.866;2022-12-29T14:43:59;3.42;;;1.50;;
49193;SDS011;35029;50.804;12.866;2022-12-29T14:46:25;2.80;;;1.58;;
49193;SDS011;35029;50.804;12.866;2022-12-29T14:49:14;2.70;;;1.80;;
49193;SDS011;35029;50.804;12.866;2022-12-29T14:51:43;2.83;;;2.08;;
49193;SDS011;35029;50.804;12.866;2022-12-29T14:57:04;5.80;;;1.95;;
49193;SDS011;35029;50.804;12.866;2022-12-29T14:59:33;3.10;;;1.67;;
49193;SDS011;35029;50.804;12.866;2022-12-29T15:02:04;2.78;;;1.77;;
49193;SDS011;35029;50.804;12.866;2022-12-29T15:04:40;3.90;;;1.52;;
49193;SDS011;35029;50.804;12.866;2022-12-29T15:07:08;3.97;;;1.60;;
49193;SDS011;35029;50.804;12.866;2022-12-29T15:09:42;2.65;;;1.50;;
49193;SDS011;35029;50.804;12.866;2022-12-29T15:12:20;6.10;;;1.70;;
49193;SDS011;35029;50.804;12.866;2022-12-29T15:14:59;2.58;;;1.50;;
49193;SDS011;35029;50.804;12.866;2022-12-29T15:17:29;2.65;;;1.38;;
49193;SDS011;35029;50.804;12.866;2022-12-29T15:20:00;2.85;;;1.52;;
49193;SDS011;35029;50.804;12.866;2022-12-29T15:22:57;3.10;;;1.40;;
49193;SDS011;35029;50.804;12.866;2022-12-29T15:25:25;3.05;;;1.30;;
49193;SDS011;35029;50.804;12.866;2022-12-29T15:27:52;2.53;;;1.10;;
49193;SDS011;35029;50.804;12.866;2022-12-29T15:30:20;2.22;;;1.10;;
49193;SDS011;35029;50.804;12.866;2022-12-29T15:32:46;1.75;;;1.20;;
49193;SDS011;35029;50.804;12.866;2022-12-29T15:37:47;2.60;;;0.98;;
49193;SDS011;35029;50.804;12.866;2022-12-29T15:43:27;1.05;;;0.90;;
49193;SDS011;35029;50.804;12.866;2022-12-29T15:45:55;1.35;;;0.80;;
49193;SDS011;35029;50.804;12.866;2022-12-29T15:48:22;2.08;;;0.95;;
49193;SDS011;35029;50.804;12.866;2022-12-29T15:50:49;1.13;;;0.90;;
49193;SDS011;35029;50.804;12.866;2022-12-29T15:53:21;1.95;;;1.23;;
49193;SDS011;35029;50.804;12.866;2022-12-29T15:55:50;3.42;;;1.42;;
49193;SDS011;35029;50.804;12.866;2022-12-29T15:58:26;1.92;;;0.90;;
49193;SDS011;35029;50.804;12.866;2022-12-29T16:00:55;1.50;;;0.80;;
49193;SDS011;35029;50.804;12.866;2022-12-29T16:03:27;2.50;;;1.02;;
49193;SDS011;35029;50.804;12.866;2022-12-29T16:05:57;3.05;;;0.95;;
49193;SDS011;35029;50.804;12.866;2022-12-29T16:08:34;2.03;;;1.17;;
49193;SDS011;35029;50.804;12.866;2022-12-29T16:11:03;4.22;;;1.20;;
49193;SDS011;35029;50.804;12.866;2022-12-29T16:13:42;1.48;;;1.00;;
49193;SDS011;35029;50.804;12.866;2022-12-29T16:16:14;4.20;;;1.33;;
49193;SDS011;35029;50.804;12.866;2022-12-29T16:19:17;4.38;;;2.65;;
49193;SDS011;35029;50.804;12.866;2022-12-29T16:21:49;4.60;;;2.33;;
49193;SDS011;35029;50.804;12.866;2022-12-29T16:24:16;3.42;;;2.20;;
49193;SDS011;35029;50.804;12.866;2022-12-29T16:27:07;6.10;;;3.30;;
49193;SDS011;35029;50.804;12.866;2022-12-29T16:29:41;4.60;;;3.22;;
49193;SDS011;35029;50.804;12.866;2022-12-29T16:32:30;5.47;;;3.50;;
49193;SDS011;35029;50.804;12.866;2022-12-29T16:35:09;2.42;;;2.22;;
49193;SDS011;35029;50.804;12.866;2022-12-29T16:37:37;2.47;;;1.27;;
49193;SDS011;35029;50.804;12.866;2022-12-29T16:43:00;1.67;;;1.40;;
49193;SDS011;35029;50.804;12.866;2022-12-29T16:50:41;1.65;;;1.45;;
49193;SDS011;35029;50.804;12.866;2022-12-29T16:53:19;2.92;;;1.55;;
49193;SDS011;35029;50.804;12.866;2022-12-29T16:55:54;2.80;;;1.70;;
49193;SDS011;35029;50.804;12.866;2022-12-29T16:58:25;4.28;;;1.95;;
49193;SDS011;35029;50.804;12.866;2022-12-29T17:00:54;5.50;;;1.92;;
49193;SDS011;35029;50.804;12.866;2022-12-29T17:03:21;2.58;;;1.80;;
49193;SDS011;35029;50.804;12.866;2022-12-29T17:05:50;2.65;;;1.67;;
49193;SDS011;35029;50.804;12.866;2022-12-29T17:08:16;3.42;;;2.03;;
49193;SDS011;35029;50.804;12.866;2022-12-29T17:10:51;4.25;;;2.88;;
49193;SDS011;35029;50.804;12.866;2022-12-29T17:14:01;5.70;;;3.15;;
49193;SDS011;35029;50.804;12.866;2022-12-29T17:16:27;8.57;;;4.90;;
49193;SDS011;35029;50.804;12.866;2022-12-29T17:18:52;7.30;;;5.05;;
49193;SDS011;35029;50.804;12.866;2022-12-29T17:21:18;7.53;;;5.15;;
49193;SDS011;35029;50.804;12.866;2022-12-29T17:23:43;7.05;;;4.53;;
49193;SDS011;35029;50.804;12.866;2022-12-29T17:26:09;5.63;;;4.53;;
49193;SDS011;35029;50.804;12.866;2022-12-29T17:28:36;3.63;;;2.90;;
49193;SDS011;35029;50.804;12.866;2022-12-29T17:31:02;4.47;;;2.58;;
49193;SDS011;35029;50.804;12.866;2022-12-29T17:33:33;2.33;;;1.70;;
49193;SDS011;35029;50.804;12.866;2022-12-29T17:36:01;3.03;;;2.28;;
49193;SDS011;35029;50.804;12.866;2022-12-29T17:38:27;2.40;;;1.67;;
49193;SDS011;35029;50.804;12.866;2022-12-29T17:40:55;3.08;;;1.70;;
49193;SDS011;35029;50.804;12.866;2022-12-29T17:43:21;3.10;;;1.90;;
49193;SDS011;35029;50.804;12.866;2022-12-29T17:45:48;9.45;;;3.22;;
49193;SDS011;35029;50.804;12.866;2022-12-29T17:48:17;11.98;;;5.88;;
49193;SDS011;35029;50.804;12.866;2022-12-29T17:50:44;14.27;;;6.85;;
49193;SDS011;35029;50.804;12.866;2022-12-29T17:53:13;12.77;;;6.30;;
49193;SDS011;35029;50.804;12.866;2022-12-29T17:55:40;9.45;;;4.68;;